createdAt,value
2016-10-12T00:00:58.125Z,0
2016-10-12T00:02:08.880Z,0
2016-10-12T00:03:20.411Z,0
2016-10-12T00:04:31.000Z,0
2016-10-12T00:05:42.129Z,0
2016-10-12T00:07:34.942Z,0
2016-10-12T00:08:45.629Z,0
2016-10-12T00:09:56.645Z,0
2016-10-12T00:11:07.195Z,0
2016-10-12T00:12:17.770Z,0
2016-10-12T00:13:28.470Z,0
2016-10-12T00:14:39.070Z,0
2016-10-12T00:15:49.619Z,0
2016-10-12T00:17:00.174Z,0
2016-10-12T00:18:11.183Z,0
2016-10-12T00:19:21.855Z,0
2016-10-12T00:20:32.480Z,0
2016-10-12T00:21:43.003Z,0
2016-10-12T00:22:54.079Z,0
2016-10-12T00:24:04.634Z,0
2016-10-12T00:25:15.675Z,0
2016-10-12T00:26:26.773Z,0
2016-10-12T00:27:37.813Z,0
2016-10-12T00:28:48.945Z,0
2016-10-12T00:29:59.459Z,0
2016-10-12T00:31:11.122Z,0
2016-10-12T00:32:21.635Z,0
2016-10-12T00:33:32.244Z,0
2016-10-12T00:34:42.792Z,0
2016-10-12T00:35:53.411Z,0
2016-10-12T00:37:04.658Z,0
2016-10-12T00:38:15.266Z,0
2016-10-12T00:39:25.908Z,0
2016-10-12T00:40:36.439Z,0
2016-10-12T00:41:47.064Z,0
2016-10-12T00:42:57.821Z,0
2016-10-12T00:44:08.419Z,0
2016-10-12T00:45:19.060Z,0
2016-10-12T00:46:29.689Z,0
2016-10-12T00:47:40.379Z,0
2016-10-12T00:48:51.211Z,0
2016-10-12T00:50:01.758Z,0
2016-10-12T00:51:12.403Z,0
2016-10-12T00:52:23.058Z,0
2016-10-12T00:53:36.692Z,0
2016-10-12T00:54:47.329Z,0
2016-10-12T00:55:57.876Z,0
2016-10-12T00:57:08.462Z,0
2016-10-12T00:58:19.049Z,0
2016-10-12T00:59:29.637Z,0
2016-10-12T01:00:40.351Z,0
2016-10-12T01:01:50.941Z,0
2016-10-12T01:03:01.525Z,0
2016-10-12T01:04:12.111Z,0
2016-10-12T01:05:22.706Z,0
2016-10-12T01:06:33.286Z,0
2016-10-12T01:07:43.949Z,0
2016-10-12T01:08:54.557Z,0
2016-10-12T01:10:05.158Z,0
2016-10-12T01:11:15.754Z,0
2016-10-12T01:12:26.484Z,0
2016-10-12T01:13:37.081Z,0
2016-10-12T01:14:47.675Z,0
2016-10-12T01:15:58.257Z,0
2016-10-12T01:17:08.863Z,0
2016-10-12T01:18:19.453Z,0
2016-10-12T01:19:30.038Z,0
2016-10-12T01:20:40.636Z,0
2016-10-12T01:21:51.235Z,0
2016-10-12T01:23:01.825Z,0
2016-10-12T01:24:12.518Z,0
2016-10-12T01:25:23.108Z,0
2016-10-12T01:26:33.708Z,0
2016-10-12T01:27:44.287Z,0
2016-10-12T01:28:54.824Z,0
2016-10-12T01:30:05.475Z,0
2016-10-12T01:31:16.013Z,0
2016-10-12T01:32:26.575Z,0
2016-10-12T01:33:37.173Z,0
2016-10-12T01:34:47.757Z,0
2016-10-12T01:35:58.480Z,0
2016-10-12T01:37:08.991Z,0
2016-10-12T01:38:19.530Z,0
2016-10-12T01:39:30.118Z,0
2016-10-12T01:40:40.628Z,0
2016-10-12T01:41:51.560Z,0
2016-10-12T01:43:02.104Z,0
2016-10-12T01:44:12.629Z,0
2016-10-12T01:45:23.183Z,0
2016-10-12T01:46:33.711Z,0
2016-10-12T01:47:44.356Z,0
2016-10-12T01:48:54.911Z,0
2016-10-12T01:50:05.441Z,0
2016-10-12T01:51:16.016Z,0
2016-10-12T01:52:26.568Z,0
2016-10-12T01:53:37.341Z,0
2016-10-12T01:54:47.896Z,0
2016-10-12T01:55:58.402Z,0
2016-10-12T01:57:08.964Z,0
2016-10-12T01:58:19.487Z,0
2016-10-12T01:59:30.519Z,0
2016-10-12T02:00:41.106Z,0
2016-10-12T02:01:51.700Z,0
2016-10-12T02:03:02.227Z,0
2016-10-12T02:04:12.824Z,0
2016-10-12T02:05:23.452Z,0
2016-10-12T02:06:33.992Z,0
2016-10-12T02:07:44.896Z,0
2016-10-12T02:08:55.393Z,0
2016-10-12T02:10:05.932Z,0
2016-10-12T02:11:16.449Z,0
2016-10-12T02:12:27.036Z,0
2016-10-12T02:13:37.573Z,0
2016-10-12T02:14:48.131Z,0
2016-10-12T02:15:58.675Z,0
2016-10-12T02:17:09.330Z,0
2016-10-12T02:18:19.836Z,0
2016-10-12T02:19:30.369Z,0
2016-10-12T02:20:40.876Z,0
2016-10-12T02:21:51.367Z,0
2016-10-12T02:23:02.046Z,0
2016-10-12T02:24:12.575Z,0
2016-10-12T02:25:23.446Z,0
2016-10-12T02:26:34.339Z,0
2016-10-12T02:27:44.901Z,0
2016-10-12T02:28:55.966Z,0
2016-10-12T02:30:06.478Z,0
2016-10-12T02:31:17.036Z,0
2016-10-12T02:32:27.583Z,0
2016-10-12T02:33:38.133Z,0
2016-10-12T02:34:48.695Z,0
2016-10-12T02:35:59.261Z,0
2016-10-12T02:37:09.783Z,0
2016-10-12T02:38:20.784Z,0
2016-10-12T02:39:31.336Z,0
2016-10-12T02:40:42.047Z,0
2016-10-12T02:41:52.588Z,0
2016-10-12T02:43:03.556Z,0
2016-10-12T02:44:14.589Z,0
2016-10-12T02:45:25.116Z,0
2016-10-12T02:46:36.169Z,0
2016-10-12T02:47:47.218Z,0
2016-10-12T02:48:57.747Z,0
2016-10-12T02:50:08.308Z,0
2016-10-12T02:51:18.876Z,0
2016-10-12T02:52:29.526Z,0
2016-10-12T02:53:40.041Z,0
2016-10-12T02:54:50.578Z,0
2016-10-12T02:56:01.128Z,0
2016-10-12T02:57:11.681Z,0
2016-10-12T02:58:22.234Z,0
2016-10-12T02:59:32.767Z,0
2016-10-12T03:00:43.308Z,0
2016-10-12T03:01:53.858Z,0
2016-10-12T03:03:04.409Z,0
2016-10-12T03:04:15.521Z,0
2016-10-12T03:05:26.072Z,0
2016-10-12T03:06:36.631Z,0
2016-10-12T03:07:47.551Z,0
2016-10-12T03:08:58.126Z,0
2016-10-12T03:10:08.773Z,0
2016-10-12T03:11:19.715Z,0
2016-10-12T03:12:30.260Z,0
2016-10-12T03:13:40.777Z,0
2016-10-12T03:14:51.374Z,0
2016-10-12T03:16:02.441Z,0
2016-10-12T03:17:12.969Z,0
2016-10-12T03:18:23.479Z,0
2016-10-12T03:19:33.975Z,0
2016-10-12T03:20:44.506Z,0
2016-10-12T03:21:55.240Z,0
2016-10-12T03:23:05.787Z,0
2016-10-12T03:24:16.373Z,0
2016-10-12T03:25:26.899Z,0
2016-10-12T03:26:37.461Z,0
2016-10-12T03:27:48.447Z,0
2016-10-12T03:28:59.486Z,0
2016-10-12T03:30:10.516Z,0
2016-10-12T03:31:22.023Z,0
2016-10-12T03:32:32.557Z,0
2016-10-12T03:33:43.245Z,0
2016-10-12T03:34:54.291Z,0
2016-10-12T03:36:04.818Z,0
2016-10-12T03:37:15.857Z,0
2016-10-12T03:38:26.389Z,0
2016-10-12T03:39:37.435Z,0
2016-10-12T03:40:47.989Z,0
2016-10-12T03:41:59.485Z,0
2016-10-12T03:43:10.020Z,0
2016-10-12T03:44:21.597Z,0
2016-10-12T03:45:32.697Z,0
2016-10-12T03:46:43.228Z,0
2016-10-12T03:47:54.635Z,0
2016-10-12T03:49:05.658Z,0
2016-10-12T03:50:16.186Z,0
2016-10-12T03:51:26.844Z,0
2016-10-12T03:52:37.401Z,0
2016-10-12T03:53:48.399Z,0
2016-10-12T03:54:58.922Z,0
2016-10-12T03:56:09.487Z,0
2016-10-12T03:57:20.130Z,0
2016-10-12T03:58:31.041Z,0
2016-10-12T03:59:41.566Z,0
2016-10-12T04:00:52.138Z,0
2016-10-12T04:02:03.184Z,0
2016-10-12T04:03:13.747Z,0
2016-10-12T04:04:24.264Z,0
2016-10-12T04:05:34.845Z,0
2016-10-12T04:06:45.917Z,0
2016-10-12T04:07:56.459Z,0
2016-10-12T04:09:07.611Z,0
2016-10-12T04:10:18.636Z,0
2016-10-12T04:11:29.694Z,0
2016-10-12T04:12:40.255Z,0
2016-10-12T04:13:50.829Z,0
2016-10-12T04:15:01.418Z,0
2016-10-12T04:16:11.971Z,0
2016-10-12T04:17:22.520Z,0
2016-10-12T04:18:33.531Z,0
2016-10-12T04:19:44.095Z,0
2016-10-12T04:20:54.755Z,0
2016-10-12T04:22:05.287Z,0
2016-10-12T04:23:15.855Z,0
2016-10-12T04:24:26.461Z,0
2016-10-12T04:25:36.986Z,0
2016-10-12T04:26:47.519Z,0
2016-10-12T04:27:58.092Z,0
2016-10-12T04:29:08.606Z,0
2016-10-12T04:30:19.098Z,0
2016-10-12T04:31:29.638Z,0
2016-10-12T04:32:40.301Z,0
2016-10-12T04:33:50.894Z,0
2016-10-12T04:35:01.815Z,0
2016-10-12T04:36:12.369Z,0
2016-10-12T04:37:22.942Z,0
2016-10-12T04:38:33.616Z,0
2016-10-12T04:39:44.163Z,0
2016-10-12T04:40:54.683Z,0
2016-10-12T04:42:05.263Z,0
2016-10-12T04:43:15.834Z,0
2016-10-12T04:44:26.472Z,0
2016-10-12T04:45:37.030Z,0
2016-10-12T04:46:47.601Z,0
2016-10-12T04:47:58.124Z,0
2016-10-12T04:49:08.659Z,0
2016-10-12T04:50:19.198Z,0
2016-10-12T04:51:29.762Z,0
2016-10-12T04:52:40.293Z,0
2016-10-12T04:53:50.832Z,0
2016-10-12T04:55:01.424Z,0
2016-10-12T04:56:12.067Z,0
2016-10-12T04:57:23.074Z,0
2016-10-12T04:58:33.621Z,0
2016-10-12T04:59:44.147Z,0
2016-10-12T05:00:54.654Z,0
2016-10-12T05:02:05.310Z,0
2016-10-12T05:03:15.854Z,0
2016-10-12T05:04:26.873Z,0
2016-10-12T05:05:37.762Z,0
2016-10-12T05:06:48.252Z,0
2016-10-12T05:07:58.933Z,0
2016-10-12T05:09:09.478Z,0
2016-10-12T05:10:20.484Z,0
2016-10-12T05:11:31.025Z,0
2016-10-12T05:12:41.576Z,0
2016-10-12T05:13:52.201Z,0
2016-10-12T05:15:03.183Z,0
2016-10-12T05:16:13.736Z,0
2016-10-12T05:17:24.285Z,0
2016-10-12T05:18:34.839Z,0
2016-10-12T05:19:45.576Z,0
2016-10-12T05:20:56.109Z,0
2016-10-12T05:22:06.648Z,0
2016-10-12T05:23:17.193Z,0
2016-10-12T05:24:27.760Z,0
2016-10-12T05:25:38.395Z,0
2016-10-12T05:26:49.399Z,0
2016-10-12T05:27:59.989Z,0
2016-10-12T05:29:10.521Z,0
2016-10-12T05:30:21.066Z,0
2016-10-12T05:31:31.747Z,0
2016-10-12T05:32:42.321Z,0
2016-10-12T05:33:52.910Z,0
2016-10-12T05:35:03.458Z,0
2016-10-12T05:36:13.987Z,0
2016-10-12T05:37:24.667Z,0
2016-10-12T05:38:35.195Z,0
2016-10-12T05:39:45.714Z,0
2016-10-12T05:40:56.447Z,0
2016-10-12T05:42:06.956Z,0
2016-10-12T05:43:17.662Z,0
2016-10-12T05:44:28.243Z,0
2016-10-12T05:45:38.752Z,0
2016-10-12T05:46:49.326Z,0
2016-10-12T05:47:59.867Z,0
2016-10-12T05:49:10.526Z,0
2016-10-12T05:50:21.083Z,0
2016-10-12T05:51:31.611Z,0
2016-10-12T05:52:42.175Z,0
2016-10-12T05:53:52.692Z,0
2016-10-12T05:55:03.654Z,0
2016-10-12T05:56:14.695Z,0
2016-10-12T05:57:25.239Z,0
2016-10-12T05:58:35.841Z,0
2016-10-12T05:59:46.737Z,0
2016-10-12T06:00:57.481Z,0
2016-10-12T06:02:08.043Z,0
2016-10-12T06:03:19.011Z,0
2016-10-12T06:04:29.540Z,0
2016-10-12T06:05:40.073Z,0
2016-10-12T06:06:50.789Z,0
2016-10-12T06:08:01.341Z,0
2016-10-12T06:09:11.863Z,0
2016-10-12T06:10:22.452Z,0
2016-10-12T06:11:33.007Z,0
2016-10-12T06:12:43.632Z,0
2016-10-12T06:13:54.189Z,0
2016-10-12T06:15:04.706Z,0
2016-10-12T06:16:15.258Z,0
2016-10-12T06:17:26.121Z,0
2016-10-12T06:18:36.658Z,0
2016-10-12T06:19:47.200Z,0
2016-10-12T06:20:57.769Z,0
2016-10-12T06:22:08.367Z,0
2016-10-12T06:23:18.897Z,0
2016-10-12T06:24:29.498Z,0
2016-10-12T06:25:40.085Z,0
2016-10-12T06:26:50.622Z,0
2016-10-12T06:28:01.172Z,0
2016-10-12T06:29:12.206Z,0
2016-10-12T06:30:23.356Z,0
2016-10-12T06:31:33.882Z,0
2016-10-12T06:32:44.459Z,0
2016-10-12T06:33:55.893Z,0
2016-10-12T06:35:06.462Z,0
2016-10-12T06:36:17.102Z,0
2016-10-12T06:37:27.661Z,0
2016-10-12T06:38:38.584Z,0
2016-10-12T06:39:49.102Z,0
2016-10-12T06:41:00.435Z,0
2016-10-12T06:42:10.992Z,0
2016-10-12T06:43:21.507Z,0
2016-10-12T06:44:32.066Z,0
2016-10-12T06:45:42.614Z,0
2016-10-12T06:46:53.102Z,0
2016-10-12T06:48:03.723Z,0
2016-10-12T06:49:14.253Z,0
2016-10-12T06:50:24.771Z,0
2016-10-12T06:51:35.260Z,0
2016-10-12T06:52:45.828Z,0
2016-10-12T06:53:56.895Z,0
2016-10-12T06:55:07.463Z,0
2016-10-12T06:56:18.045Z,0
2016-10-12T06:57:28.551Z,0
2016-10-12T06:58:39.049Z,0
2016-10-12T06:59:49.680Z,0
2016-10-12T07:01:00.206Z,0
2016-10-12T07:02:11.257Z,0
2016-10-12T07:03:21.802Z,0
2016-10-12T07:04:32.284Z,0
2016-10-12T07:05:42.754Z,0
2016-10-12T07:06:53.229Z,0
2016-10-12T07:08:03.760Z,0
2016-10-12T07:09:14.268Z,0
2016-10-12T07:10:24.806Z,0
2016-10-12T07:11:35.825Z,0
2016-10-12T07:12:46.379Z,0
2016-10-12T07:13:56.939Z,0
2016-10-12T07:15:07.458Z,0
2016-10-12T07:16:18.442Z,0
2016-10-12T07:17:29.068Z,0
2016-10-12T07:18:39.588Z,0
2016-10-12T07:19:50.110Z,0
2016-10-12T07:21:00.624Z,0
2016-10-12T07:22:11.160Z,0
2016-10-12T07:23:22.051Z,0
2016-10-12T07:24:32.557Z,0
2016-10-12T07:25:43.114Z,0
2016-10-12T07:26:53.598Z,0
2016-10-12T07:28:04.499Z,0
2016-10-12T07:29:15.162Z,0
2016-10-12T07:30:25.677Z,0
2016-10-12T07:31:36.168Z,0
2016-10-12T07:32:46.698Z,0
2016-10-12T07:33:57.681Z,0
2016-10-12T07:35:08.292Z,0
2016-10-12T07:36:18.789Z,0
2016-10-12T07:37:29.287Z,0
2016-10-12T07:38:39.771Z,0
2016-10-12T07:39:50.261Z,0
2016-10-12T07:41:00.846Z,0
2016-10-12T07:42:11.371Z,0
2016-10-12T07:43:22.345Z,0
2016-10-12T07:44:32.872Z,0
2016-10-12T07:45:43.359Z,0
2016-10-12T07:46:53.875Z,0
2016-10-12T07:48:04.408Z,0
2016-10-12T07:49:14.884Z,0
2016-10-12T07:50:25.385Z,0
2016-10-12T07:51:35.909Z,0
2016-10-12T07:52:46.478Z,0
2016-10-12T07:53:56.966Z,0
2016-10-12T07:55:07.488Z,0
2016-10-12T07:56:17.997Z,0
2016-10-12T07:57:28.562Z,0
2016-10-12T07:58:39.186Z,0
2016-10-12T07:59:49.666Z,0
2016-10-12T08:01:00.153Z,0
2016-10-12T08:02:10.658Z,0
2016-10-12T08:03:22.164Z,0
2016-10-12T08:04:32.756Z,0
2016-10-12T08:05:43.227Z,0
2016-10-12T08:06:53.710Z,0
2016-10-12T08:08:04.196Z,0
2016-10-12T08:09:14.664Z,0
2016-10-12T08:10:25.176Z,0
2016-10-12T08:11:35.674Z,4
2016-10-12T08:12:46.193Z,0
2016-10-12T08:13:57.082Z,4
2016-10-12T08:15:07.623Z,8
2016-10-12T08:16:18.243Z,8
2016-10-12T08:17:28.771Z,12
2016-10-12T08:18:39.261Z,12
2016-10-12T08:19:49.833Z,20
2016-10-12T08:21:00.300Z,28
2016-10-12T08:22:10.902Z,40
2016-10-12T08:23:21.388Z,48
2016-10-12T08:24:31.901Z,64
2016-10-12T08:25:42.424Z,80
2016-10-12T08:26:52.939Z,100
2016-10-12T08:28:03.527Z,128
2016-10-12T08:29:14.032Z,156
2016-10-12T08:30:24.563Z,196
2016-10-12T08:31:35.095Z,240
2016-10-12T08:32:45.574Z,288
2016-10-12T08:33:56.079Z,348
2016-10-12T08:35:06.959Z,412
2016-10-12T08:36:17.485Z,480
2016-10-12T08:37:27.976Z,548
2016-10-12T08:38:38.450Z,628
2016-10-12T08:39:49.052Z,712
2016-10-12T08:40:59.536Z,808
2016-10-12T08:42:10.020Z,908
2016-10-12T08:43:20.498Z,1016
2016-10-12T08:44:30.980Z,1128
2016-10-12T08:45:41.549Z,1252
2016-10-12T08:46:52.088Z,1388
2016-10-12T08:48:02.608Z,1516
2016-10-12T08:49:13.147Z,1656
2016-10-12T08:50:23.686Z,1820
2016-10-12T08:51:34.295Z,1984
2016-10-12T08:52:44.783Z,2148
2016-10-12T08:53:55.294Z,2312
2016-10-12T08:55:05.753Z,2484
2016-10-12T08:56:16.254Z,2644
2016-10-12T08:57:26.818Z,2780
2016-10-12T08:58:37.347Z,2968
2016-10-12T08:59:47.872Z,3180
2016-10-12T09:00:58.358Z,3384
2016-10-12T09:02:08.849Z,3592
2016-10-12T09:03:19.435Z,3820
2016-10-12T09:04:30.300Z,4032
2016-10-12T09:05:40.788Z,4224
2016-10-12T09:06:51.272Z,4448
2016-10-12T09:08:02.273Z,4648
2016-10-12T09:09:12.863Z,4784
2016-10-12T09:10:23.423Z,4928
2016-10-12T09:11:33.906Z,5096
2016-10-12T09:12:44.394Z,5204
2016-10-12T09:13:54.973Z,5308
2016-10-12T09:15:05.519Z,5444
2016-10-12T09:16:16.036Z,5620
2016-10-12T09:17:26.523Z,5860
2016-10-12T09:18:36.985Z,6096
2016-10-12T09:19:47.493Z,6360
2016-10-12T09:20:58.459Z,6660
2016-10-12T09:22:08.945Z,6904
2016-10-12T09:23:19.470Z,7104
2016-10-12T09:24:29.980Z,7284
2016-10-12T09:25:40.535Z,7456
2016-10-12T09:26:51.503Z,7616
2016-10-12T09:28:02.025Z,7840
2016-10-12T09:29:12.504Z,8080
2016-10-12T09:30:22.987Z,8416
2016-10-12T09:31:33.493Z,8856
2016-10-12T09:32:44.139Z,9124
2016-10-12T09:33:54.632Z,9284
2016-10-12T09:35:05.135Z,9392
2016-10-12T09:36:15.634Z,9448
2016-10-12T09:37:26.096Z,9560
2016-10-12T09:38:36.606Z,9720
2016-10-12T09:39:47.079Z,10036
2016-10-12T09:40:57.582Z,10112
2016-10-12T09:42:08.111Z,10176
2016-10-12T09:43:18.592Z,10656
2016-10-12T09:44:29.174Z,10740
2016-10-12T09:45:39.653Z,10972
2016-10-12T09:46:50.154Z,11616
2016-10-12T09:48:00.659Z,15668
2016-10-12T09:49:11.635Z,22976
2016-10-12T09:50:22.568Z,24352
2016-10-12T09:51:33.136Z,23488
2016-10-12T09:52:43.659Z,23616
2016-10-12T09:53:54.161Z,21888
2016-10-12T09:55:04.662Z,22144
2016-10-12T09:56:15.285Z,22304
2016-10-12T09:57:25.790Z,22144
2016-10-12T09:58:36.307Z,23904
2016-10-12T09:59:46.815Z,32512
2016-10-12T10:00:57.338Z,51168
2016-10-12T10:02:07.838Z,62016
2016-10-12T10:03:18.314Z,56160
2016-10-12T10:04:29.183Z,48544
2016-10-12T10:05:39.704Z,49344
2016-10-12T10:06:50.589Z,49664
2016-10-12T10:08:01.230Z,48960
2016-10-12T10:09:11.738Z,49536
2016-10-12T10:10:35.190Z,51744
2016-10-12T10:11:45.704Z,56384
2016-10-12T10:12:56.315Z,60800
2016-10-12T10:14:06.821Z,59328
2016-10-12T10:15:17.323Z,58784
2016-10-12T10:16:28.289Z,60128
2016-10-12T10:17:38.817Z,60000
2016-10-12T10:18:49.433Z,59520
2016-10-12T10:19:59.941Z,58400
2016-10-12T10:21:10.474Z,56320
2016-10-12T10:22:21.002Z,57024
2016-10-12T10:23:31.548Z,59008
2016-10-12T10:24:42.058Z,61696
2016-10-12T10:25:52.630Z,64224
2016-10-12T10:27:03.149Z,61952
2016-10-12T10:28:13.734Z,65024
2016-10-12T10:29:24.294Z,61888
2016-10-12T10:30:34.969Z,64672
2016-10-12T10:31:45.528Z,64800
2016-10-12T10:32:56.109Z,67104
2016-10-12T10:34:06.642Z,70688
2016-10-12T10:35:17.544Z,70688
2016-10-12T10:36:28.218Z,70112
2016-10-12T10:37:38.770Z,67840
2016-10-12T10:38:49.340Z,67168
2016-10-12T10:39:59.886Z,66944
2016-10-12T10:41:10.429Z,69056
2016-10-12T10:42:21.120Z,72288
2016-10-12T10:43:31.698Z,71808
2016-10-12T10:44:42.300Z,68384
2016-10-12T10:45:52.827Z,72288
2016-10-12T10:47:03.395Z,74432
2016-10-12T10:48:14.471Z,71712
2016-10-12T10:49:25.045Z,75264
2016-10-12T10:50:35.624Z,75776
2016-10-12T10:51:46.154Z,75392
2016-10-12T10:52:56.718Z,71936
2016-10-12T10:54:07.274Z,70016
2016-10-12T10:55:17.818Z,74624
2016-10-12T10:56:28.386Z,74880
2016-10-12T10:57:38.979Z,74336
2016-10-12T10:58:49.507Z,71680
2016-10-12T11:00:00.206Z,72512
2016-10-12T11:01:10.808Z,76032
2016-10-12T11:02:21.640Z,77696
2016-10-12T11:03:32.202Z,80480
2016-10-12T11:04:42.775Z,78048
2016-10-12T11:05:53.405Z,80960
2016-10-12T11:07:04.314Z,82816
2016-10-12T11:08:14.898Z,81952
2016-10-12T11:09:25.433Z,80640
2016-10-12T11:10:36.035Z,84544
2016-10-12T11:11:46.706Z,80800
2016-10-12T11:12:57.264Z,78304
2016-10-12T11:14:07.874Z,78816
2016-10-12T11:15:18.428Z,75168
2016-10-12T11:16:28.998Z,76000
2016-10-12T11:17:39.560Z,76192
2016-10-12T11:18:50.137Z,81760
2016-10-12T11:20:00.740Z,84384
2016-10-12T11:21:11.341Z,82400
2016-10-12T11:22:21.886Z,81792
2016-10-12T11:23:32.626Z,83008
2016-10-12T11:24:43.193Z,83072
2016-10-12T11:25:53.764Z,79872
2016-10-12T11:27:04.331Z,74624
2016-10-12T11:28:14.872Z,80384
2016-10-12T11:29:25.560Z,86176
2016-10-12T11:30:36.161Z,84992
2016-10-12T11:31:46.701Z,83008
2016-10-12T11:32:57.225Z,81792
2016-10-12T11:34:07.778Z,87072
2016-10-12T11:35:18.359Z,87232
2016-10-12T11:36:28.871Z,86368
2016-10-12T11:37:39.446Z,89792
2016-10-12T11:38:50.023Z,91168
2016-10-12T11:40:00.592Z,88416
2016-10-12T11:41:11.293Z,91104
2016-10-12T11:42:21.868Z,87744
2016-10-12T11:43:32.444Z,85024
2016-10-12T11:44:42.963Z,87168
2016-10-12T11:45:53.564Z,85536
2016-10-12T11:47:04.704Z,82496
2016-10-12T11:48:15.302Z,84256
2016-10-12T11:49:25.877Z,81728
2016-10-12T11:50:36.451Z,86976
2016-10-12T11:51:47.025Z,89632
2016-10-12T11:52:57.672Z,89600
2016-10-12T11:54:08.205Z,87136
2016-10-12T11:55:18.777Z,87904
2016-10-12T11:56:29.846Z,88992
2016-10-12T11:57:40.461Z,89312
2016-10-12T11:58:51.016Z,90656
2016-10-12T12:00:01.535Z,89632
2016-10-12T12:01:12.127Z,91136
2016-10-12T12:02:22.663Z,93376
2016-10-12T12:03:33.239Z,95936
2016-10-12T12:04:43.860Z,96576
2016-10-12T12:05:54.348Z,98912
2016-10-12T12:07:05.262Z,99904
2016-10-12T12:08:15.788Z,99008
2016-10-12T12:09:26.274Z,95584
2016-10-12T12:10:37.356Z,98656
2016-10-12T12:11:48.234Z,97824
2016-10-12T12:12:58.792Z,96928
2016-10-12T12:14:10.609Z,97408
2016-10-12T12:15:21.107Z,97152
2016-10-12T12:16:31.735Z,98688
2016-10-12T12:17:42.234Z,96736
2016-10-12T12:18:53.238Z,93344
2016-10-12T12:20:03.830Z,96544
2016-10-12T12:21:14.374Z,100992
2016-10-12T12:22:24.940Z,102368
2016-10-12T12:23:35.465Z,102176
2016-10-12T12:24:46.012Z,97056
2016-10-12T12:25:56.502Z,100864
2016-10-12T12:27:07.000Z,102880
2016-10-12T12:28:17.610Z,104832
2016-10-12T12:29:28.653Z,106848
2016-10-12T12:30:39.200Z,103296
2016-10-12T12:31:50.109Z,97280
2016-10-12T12:33:01.009Z,104352
2016-10-12T12:34:11.612Z,102592
2016-10-12T12:35:22.156Z,97280
2016-10-12T12:36:32.719Z,99488
2016-10-12T12:37:43.237Z,100704
2016-10-12T12:38:53.754Z,102112
2016-10-12T12:40:04.403Z,101504
2016-10-12T12:41:14.971Z,92416
2016-10-12T12:42:25.531Z,96832
2016-10-12T12:43:36.104Z,99584
2016-10-12T12:44:46.664Z,96896
2016-10-12T12:45:57.716Z,100288
2016-10-12T12:47:08.303Z,102144
2016-10-12T12:48:19.256Z,99712
2016-10-12T12:49:29.820Z,90240
2016-10-12T12:50:40.834Z,95328
2016-10-12T12:51:51.533Z,102144
2016-10-12T12:53:02.102Z,84448
2016-10-12T12:54:12.627Z,107104
2016-10-12T12:55:23.230Z,105312
2016-10-12T12:56:33.833Z,101312
2016-10-12T12:57:44.378Z,100416
2016-10-12T12:58:54.963Z,102016
2016-10-12T13:00:05.566Z,104960
2016-10-12T13:01:16.146Z,103168
2016-10-12T13:02:26.698Z,101792
2016-10-12T13:03:37.774Z,101312
2016-10-12T13:04:48.323Z,99936
2016-10-12T13:05:58.908Z,100512
2016-10-12T13:07:09.506Z,98496
2016-10-12T13:08:20.090Z,97760
2016-10-12T13:09:30.673Z,89728
2016-10-12T13:10:41.233Z,97984
2016-10-12T13:11:51.819Z,95552
2016-10-12T13:13:02.401Z,98048
2016-10-12T13:14:12.978Z,97376
2016-10-12T13:15:23.663Z,96800
2016-10-12T13:16:34.234Z,95808
2016-10-12T13:17:44.793Z,92256
2016-10-12T13:18:55.341Z,101408
2016-10-12T13:20:05.897Z,103680
2016-10-12T13:21:16.530Z,100576
2016-10-12T13:22:27.107Z,100416
2016-10-12T13:23:37.710Z,101920
2016-10-12T13:24:48.293Z,95744
2016-10-12T13:25:58.827Z,88576
2016-10-12T13:27:09.520Z,89824
2016-10-12T13:28:20.111Z,91936
2016-10-12T13:29:30.651Z,95008
2016-10-12T13:30:41.196Z,96448
2016-10-12T13:31:51.757Z,94496
2016-10-12T13:33:02.326Z,98272
2016-10-12T13:34:12.876Z,96864
2016-10-12T13:35:23.431Z,97504
2016-10-12T13:36:33.967Z,98368
2016-10-12T13:37:44.528Z,98048
2016-10-12T13:38:55.204Z,94176
2016-10-12T13:40:06.243Z,96896
2016-10-12T13:41:16.796Z,101984
2016-10-12T13:42:27.328Z,103424
2016-10-12T13:43:37.893Z,104896
2016-10-12T13:44:48.571Z,104000
2016-10-12T13:45:59.184Z,103456
2016-10-12T13:47:09.787Z,103360
2016-10-12T13:48:20.420Z,100608
2016-10-12T13:49:31.024Z,98752
2016-10-12T13:50:41.719Z,96480
2016-10-12T13:51:52.325Z,98752
2016-10-12T13:53:02.917Z,95360
2016-10-12T13:54:13.515Z,94304
2016-10-12T13:55:24.501Z,97056
2016-10-12T13:56:35.110Z,93568
2016-10-12T13:57:45.718Z,92576
2016-10-12T13:58:56.310Z,96448
2016-10-12T14:00:06.906Z,96736
2016-10-12T14:01:17.499Z,95744
2016-10-12T14:02:28.209Z,99680
2016-10-12T14:03:38.802Z,99552
2016-10-12T14:04:49.419Z,97664
2016-10-12T14:06:00.024Z,98624
2016-10-12T14:07:10.638Z,99552
2016-10-12T14:08:21.342Z,99520
2016-10-12T14:09:31.964Z,97792
2016-10-12T14:10:42.577Z,98304
2016-10-12T14:11:53.189Z,97888
2016-10-12T14:13:03.784Z,101184
2016-10-12T14:14:14.487Z,99136
2016-10-12T14:15:25.082Z,97152
2016-10-12T14:16:35.697Z,96640
2016-10-12T14:17:46.290Z,97216
2016-10-12T14:18:56.881Z,98368
2016-10-12T14:20:07.479Z,97536
2016-10-12T14:21:18.068Z,96032
2016-10-12T14:22:28.664Z,95904
2016-10-12T14:23:39.249Z,93632
2016-10-12T14:24:49.816Z,91136
2016-10-12T14:26:00.427Z,87136
2016-10-12T14:27:11.033Z,85504
2016-10-12T14:28:21.576Z,93440
2016-10-12T14:29:32.143Z,92480
2016-10-12T14:30:42.739Z,88384
2016-10-12T14:31:53.391Z,89216
2016-10-12T14:33:03.900Z,91648
2016-10-12T14:34:14.819Z,95200
2016-10-12T14:35:25.346Z,90240
2016-10-12T14:36:35.884Z,85952
2016-10-12T14:37:46.627Z,84704
2016-10-12T14:38:57.198Z,78208
2016-10-12T14:40:07.752Z,82912
2016-10-12T14:41:18.289Z,83104
2016-10-12T14:42:28.821Z,73600
2016-10-12T14:43:39.492Z,73248
2016-10-12T14:44:50.082Z,79264
2016-10-12T14:46:00.635Z,82080
2016-10-12T14:47:11.166Z,91680
2016-10-12T14:48:21.696Z,93952
2016-10-12T14:49:32.396Z,90336
2016-10-12T14:50:42.957Z,89856
2016-10-12T14:51:54.024Z,93152
2016-10-12T14:53:04.583Z,92352
2016-10-12T14:54:15.171Z,90944
2016-10-12T14:55:25.912Z,95232
2016-10-12T14:56:36.452Z,93536
2016-10-12T14:57:46.988Z,93408
2016-10-12T14:58:57.507Z,89568
2016-10-12T15:00:08.048Z,96160
2016-10-12T15:01:18.620Z,93056
2016-10-12T15:02:29.219Z,19840
2016-10-12T15:03:40.279Z,91328
2016-10-12T15:04:50.826Z,86816
2016-10-12T15:06:01.399Z,95008
2016-10-12T15:07:12.077Z,92992
2016-10-12T15:08:22.603Z,77824
2016-10-12T15:09:33.187Z,84864
2016-10-12T15:10:43.764Z,93856
2016-10-12T15:11:54.279Z,90560
2016-10-12T15:13:04.931Z,88992
2016-10-12T15:14:15.501Z,85408
2016-10-12T15:15:26.575Z,89664
2016-10-12T15:16:37.119Z,91328
2016-10-12T15:17:47.651Z,85632
2016-10-12T15:18:58.458Z,88064
2016-10-12T15:20:08.981Z,94816
2016-10-12T15:21:19.520Z,90208
2016-10-12T15:22:30.091Z,91872
2016-10-12T15:23:41.158Z,32064
2016-10-12T15:24:51.782Z,90976
2016-10-12T15:26:02.325Z,26400
2016-10-12T15:27:12.861Z,90688
2016-10-12T15:28:23.431Z,33120
2016-10-12T15:29:33.980Z,26496
2016-10-12T15:30:44.638Z,94112
2016-10-12T15:31:55.215Z,88544
2016-10-12T15:33:06.193Z,88640
2016-10-12T15:34:16.803Z,93920
2016-10-12T15:35:27.401Z,94816
2016-10-12T15:36:38.158Z,93152
2016-10-12T15:37:49.097Z,93280
2016-10-12T15:39:00.163Z,88960
2016-10-12T15:40:10.747Z,91680
2016-10-12T15:41:21.295Z,94720
2016-10-12T15:42:32.001Z,91904
2016-10-12T15:43:42.601Z,91520
2016-10-12T15:44:53.150Z,91104
2016-10-12T15:46:03.719Z,89152
2016-10-12T15:47:14.291Z,89120
2016-10-12T15:48:24.890Z,85792
2016-10-12T15:49:35.463Z,86272
2016-10-12T15:50:46.033Z,78624
2016-10-12T15:51:56.609Z,76000
2016-10-12T15:53:07.163Z,82400
2016-10-12T15:54:17.907Z,81056
2016-10-12T15:55:28.519Z,85120
2016-10-12T15:56:39.103Z,87200
2016-10-12T15:57:50.157Z,33664
2016-10-12T15:59:01.141Z,86592
2016-10-12T16:00:11.765Z,14916
2016-10-12T16:01:22.739Z,12780
2016-10-12T16:02:33.275Z,13232
2016-10-12T16:03:43.812Z,12736
2016-10-12T16:04:54.327Z,12812
2016-10-12T16:06:04.992Z,14376
2016-10-12T16:07:15.556Z,17776
2016-10-12T16:08:26.081Z,52032
2016-10-12T16:09:36.697Z,83264
2016-10-12T16:10:47.279Z,90720
2016-10-12T16:11:58.024Z,36736
2016-10-12T16:13:08.608Z,82880
2016-10-12T16:14:19.136Z,81024
2016-10-12T16:15:29.690Z,83680
2016-10-12T16:16:40.225Z,22624